Time;durP1;ratioP1;P1;durP2;ratioP2;P2;SDS_P1;SDS_P2;PMS_P1;PMS_P2;Temp;Humidity;BMP_temperature;BMP_pressure;BME280_temperature;BME280_humidity;BME280_pressure;Samples;Min_cycle;Max_cycle;Signal;HPM_P1;HPM_P2
2023/01/31 00:01:22;;;;;;;65.88;32.55;;;;;;;2.98;64.39;100264.63;5032329;28;20025;-84
2023/01/31 00:03:52;;;;;;;63.83;30.60;;;;;;;2.99;64.85;100275.19;5032595;28;20594;-83
2023/01/31 00:06:28;;;;;;;60.42;29.50;;;;;;;2.84;65.11;100270.75;5032255;28;20083;-81
2023/01/31 00:08:55;;;;;;;56.97;27.55;;;;;;;2.98;65.15;100288.53;5030950;28;20521;-83
2023/01/31 00:11:23;;;;;;;53.90;27.65;;;;;;;2.98;65.10;100283.22;5031164;28;20033;-82
2023/01/31 00:13:49;;;;;;;51.85;27.20;;;;;;;3.02;65.04;100284.78;5032824;28;20021;-81
2023/01/31 00:16:15;;;;;;;52.63;26.77;;;;;;;3.01;64.80;100275.97;5031765;28;20029;-84
2023/01/31 00:18:42;;;;;;;55.13;27.02;;;;;;;3.04;64.87;100280.22;5031661;28;20025;-81
2023/01/31 00:21:19;;;;;;;45.97;24.00;;;;;;;3.00;65.28;100292.81;5030421;28;20482;-82
2023/01/31 00:23:47;;;;;;;51.55;25.15;;;;;;;3.14;64.79;100290.28;5030269;28;20455;-82
2023/01/31 00:26:25;;;;;;;50.42;25.85;;;;;;;3.12;64.68;100278.84;5030970;28;20104;-83
2023/01/31 00:28:53;;;;;;;50.08;26.10;;;;;;;2.98;64.67;100273.47;5030386;28;20033;-82
2023/01/31 00:31:20;;;;;;;49.67;25.08;;;;;;;3.13;65.17;100269.97;5030171;28;20776;-82
2023/01/31 00:33:48;;;;;;;46.85;23.80;;;;;;;3.18;65.22;100269.72;5030460;28;20108;-83
2023/01/31 00:36:19;;;;;;;40.78;22.08;;;;;;;3.20;64.59;100263.34;5030507;28;20397;-82
2023/01/31 00:38:50;;;;;;;45.92;22.48;;;;;;;3.15;64.94;100262.75;5030636;28;20022;-82
2023/01/31 00:41:17;;;;;;;47.55;22.77;;;;;;;3.17;64.67;100268.84;5012648;28;20026;-82
2023/01/31 00:43:43;;;;;;;44.22;22.73;;;;;;;3.27;64.93;100275.31;5030242;28;20025;-82
2023/01/31 00:46:08;;;;;;;49.55;23.80;;;;;;;3.20;65.19;100260.69;5031902;28;20538;-84
2023/01/31 00:48:34;;;;;;;44.78;22.60;;;;;;;3.30;64.66;100264.53;5031125;28;20401;-82
2023/01/31 00:50:59;;;;;;;42.50;21.58;;;;;;;3.33;64.56;100257.34;5030666;28;20064;-83
2023/01/31 00:53:25;;;;;;;47.28;23.95;;;;;;;3.35;64.15;100236.84;5031517;28;20048;-82
2023/01/31 00:55:52;;;;;;;48.25;23.92;;;;;;;3.49;63.90;100253.69;5031498;28;20144;-83
2023/01/31 00:58:18;;;;;;;42.45;21.38;;;;;;;3.52;64.18;100248.19;5031347;28;20409;-83
2023/01/31 01:00:43;;;;;;;43.70;21.83;;;;;;;3.49;63.46;100242.19;5030222;28;20055;-81
2023/01/31 01:03:09;;;;;;;42.65;21.98;;;;;;;3.62;63.82;100238.75;5030712;28;20030;-82
2023/01/31 01:05:35;;;;;;;49.40;23.40;;;;;;;3.64;63.19;100241.31;5030947;28;20582;-82
2023/01/31 01:08:01;;;;;;;53.58;24.80;;;;;;;3.53;63.48;100218.00;5030680;28;20049;-83
2023/01/31 01:10:27;;;;;;;51.92;24.45;;;;;;;3.58;63.21;100225.69;5031054;28;20025;-81
2023/01/31 01:12:53;;;;;;;47.78;23.27;;;;;;;3.59;63.32;100227.41;5030414;28;20463;-81
2023/01/31 01:15:18;;;;;;;50.05;24.20;;;;;;;3.59;63.34;100217.66;5030563;28;20025;-82
2023/01/31 01:17:43;;;;;;;43.17;21.85;;;;;;;3.64;63.34;100220.88;5031086;28;20029;-83
2023/01/31 01:20:10;;;;;;;45.63;24.35;;;;;;;3.43;62.93;100213.31;5031212;28;20026;-83
2023/01/31 01:22:35;;;;;;;50.63;23.92;;;;;;;3.57;63.11;100218.69;5030616;28;20445;-82
2023/01/31 01:25:01;;;;;;;46.95;24.05;;;;;;;3.58;63.39;100205.28;5031007;28;20032;-83
2023/01/31 01:27:27;;;;;;;45.88;24.60;;;;;;;3.62;63.31;100211.28;5031840;28;20029;-82
2023/01/31 01:29:52;;;;;;;48.15;24.05;;;;;;;3.50;63.30;100206.69;5032554;28;20013;-84
2023/01/31 01:32:18;;;;;;;47.17;24.45;;;;;;;3.46;63.29;100205.16;5032346;28;20029;-82
2023/01/31 01:34:43;;;;;;;69.50;26.88;;;;;;;3.49;63.45;100210.28;5038021;28;20025;-83
2023/01/31 01:37:10;;;;;;;46.75;23.25;;;;;;;3.35;63.78;100202.28;5026618;28;20032;-83
2023/01/31 01:39:39;;;;;;;49.47;23.17;;;;;;;3.32;63.81;100203.31;5058142;28;20081;-83
2023/01/31 01:42:07;;;;;;;44.83;23.17;;;;;;;3.28;63.85;100192.00;5053859;28;20030;-82
2023/01/31 01:44:58;;;;;;;48.25;24.90;;;;;;;3.32;64.17;100205.13;5023323;28;20041;-82
2023/01/31 01:47:38;;;;;;;45.87;24.33;;;;;;;3.40;63.87;100205.50;5039027;28;20048;-83
2023/01/31 01:50:10;;;;;;;44.33;24.25;;;;;;;3.42;63.86;100198.34;5034796;28;20029;-83
2023/01/31 01:52:50;;;;;;;38.90;22.92;;;;;;;3.44;63.81;100186.66;5033524;28;20549;-82
2023/01/31 01:55:29;;;;;;;39.88;21.58;;;;;;;3.27;63.46;100157.56;5033365;28;20034;-82
2023/01/31 01:58:01;;;;;;;44.88;21.98;;;;;;;3.43;63.51;100171.66;5034056;28;20531;-82
2023/01/31 02:00:29;;;;;;;37.13;20.48;;;;;;;3.36;63.47;100174.78;5034027;28;20398;-82
2023/01/31 02:02:58;;;;;;;40.45;21.55;;;;;;;3.52;63.28;100196.81;5033963;28;20041;-82
2023/01/31 02:05:30;;;;;;;47.25;22.48;;;;;;;3.53;63.03;100187.91;5033298;28;20056;-82
2023/01/31 02:07:56;;;;;;;36.90;19.30;;;;;;;3.57;63.08;100181.47;5034642;28;20057;-82
2023/01/31 02:10:45;;;;;;;38.15;21.00;;;;;;;3.57;62.62;100194.75;5035653;28;20398;-82
2023/01/31 02:13:13;;;;;;;37.60;20.30;;;;;;;3.48;62.67;100182.03;5034036;28;20029;-83
2023/01/31 02:15:38;;;;;;;37.05;21.35;;;;;;;3.60;62.55;100198.09;5034442;28;20025;-82
2023/01/31 02:18:05;;;;;;;35.70;18.40;;;;;;;3.60;62.90;100197.25;5035221;28;20021;-82
2023/01/31 02:20:39;;;;;;;38.22;20.42;;;;;;;3.63;62.43;100203.22;5034449;28;20044;-81
2023/01/31 02:23:34;;;;;;;42.13;21.55;;;;;;;3.66;62.12;100197.72;5034277;28;21146;-82
2023/01/31 02:26:33;;;;;;;42.28;21.17;;;;;;;3.66;62.26;100196.88;4932810;29;20047;-83
2023/01/31 02:29:26;;;;;;;47.30;22.13;;;;;;;3.69;62.01;100196.69;4933333;29;20049;-82
2023/01/31 02:32:02;;;;;;;37.70;19.88;;;;;;;3.71;62.22;100195.66;4932996;29;20039;-83
2023/01/31 02:34:38;;;;;;;45.38;24.05;;;;;;;3.63;62.23;100189.09;4932842;29;20032;-83
2023/01/31 02:37:13;;;;;;;44.05;23.88;;;;;;;3.61;62.23;100201.59;4932959;29;20044;-83
2023/01/31 02:39:53;;;;;;;50.47;23.27;;;;;;;2.95;63.21;100199.28;4933334;29;20024;-83
2023/01/31 02:42:46;;;;;;;43.90;23.10;;;;;;;2.89;63.84;100199.63;4916680;29;20031;-83
2023/01/31 02:45:48;;;;;;;54.45;26.08;;;;;;;2.88;64.21;100189.94;4931237;29;20508;-82
2023/01/31 02:48:55;;;;;;;44.72;24.15;;;;;;;2.98;64.50;100193.78;4879270;29;20618;-82
2023/01/31 02:51:26;;;;;;;47.50;25.08;;;;;;;2.99;64.42;100195.50;4820613;29;20030;-82
2023/01/31 02:53:59;;;;;;;51.42;25.00;;;;;;;3.06;64.81;100180.91;4820768;29;20103;-83
2023/01/31 02:56:29;;;;;;;45.55;23.48;;;;;;;3.05;64.45;100173.91;4820882;29;20042;-83
2023/01/31 02:59:03;;;;;;;49.05;24.23;;;;;;;3.15;64.11;100185.69;4820414;29;20083;-82
2023/01/31 03:01:32;;;;;;;54.97;28.63;;;;;;;3.20;63.59;100198.72;4820699;29;20402;-82
2023/01/31 03:04:10;;;;;;;85.78;35.08;;;;;;;2.78;65.05;100210.00;4875637;29;20085;-83
2023/01/31 03:06:35;;;;;;;57.70;30.92;;;;;;;2.76;64.96;100193.28;4875479;29;20065;-82
2023/01/31 03:09:35;;;;;;;50.25;26.95;;;;;;;2.91;64.99;100189.75;4875664;29;20166;-83
2023/01/31 03:12:10;;;;;;;54.35;27.42;;;;;;;2.98;64.73;100188.47;4877525;29;20041;-82
2023/01/31 03:14:35;;;;;;;61.03;32.53;;;;;;;3.07;64.67;100192.41;4876137;29;20545;-82
2023/01/31 03:20:02;;;;;;;74.13;35.90;;;;;;;2.95;64.82;100186.00;4876071;29;20040;-81
2023/01/31 03:22:33;;;;;;;59.10;31.08;;;;;;;3.09;65.04;100188.72;4877213;29;20566;-84
2023/01/31 03:24:59;;;;;;;63.20;31.85;;;;;;;3.17;64.56;100183.81;4903970;29;20158;-83
2023/01/31 03:27:26;;;;;;;61.15;28.85;;;;;;;3.08;64.56;100168.41;4953469;28;20144;-84
2023/01/31 03:29:57;;;;;;;58.92;29.80;;;;;;;3.19;64.68;100176.63;5032411;28;20036;-84
2023/01/31 03:32:28;;;;;;;55.30;29.25;;;;;;;3.22;63.83;100163.16;5014212;28;20405;-82
2023/01/31 03:34:54;;;;;;;67.53;32.15;;;;;;;3.32;64.17;100171.44;5031605;28;20030;-83
2023/01/31 03:37:26;;;;;;;81.45;36.78;;;;;;;3.46;64.34;100173.25;5031658;28;20098;-84
2023/01/31 03:40:04;;;;;;;75.82;34.92;;;;;;;3.39;64.00;100156.00;5031754;28;20122;-82
2023/01/31 03:42:53;;;;;;;78.05;38.17;;;;;;;3.49;63.61;100167.75;5031299;28;20057;-83
2023/01/31 03:45:29;;;;;;;54.08;28.83;;;;;;;3.46;63.49;100158.16;4970293;28;20053;-83
2023/01/31 03:47:58;;;;;;;61.50;31.95;;;;;;;3.61;63.34;100173.19;4970409;28;20042;-81
2023/01/31 03:50:37;;;;;;;55.85;28.85;;;;;;;3.59;63.10;100183.09;4970053;28;20506;-82
2023/01/31 03:53:08;;;;;;;62.03;29.67;;;;;;;3.60;63.58;100174.16;4969940;28;20075;-82
2023/01/31 03:55:42;;;;;;;52.90;27.17;;;;;;;3.62;62.76;100179.38;4969494;28;20142;-83
2023/01/31 03:58:12;;;;;;;62.40;30.63;;;;;;;3.53;63.41;100163.97;4955072;28;20038;-82
2023/01/31 04:00:41;;;;;;;57.92;31.60;;;;;;;3.59;63.28;100167.13;4970034;28;20542;-83
2023/01/31 04:03:48;;;;;;;65.43;32.33;;;;;;;3.69;63.44;100170.09;4969591;28;20502;-81
2023/01/31 04:06:14;;;;;;;63.30;31.58;;;;;;;3.72;63.19;100175.22;4933732;28;20098;-82
2023/01/31 04:08:40;;;;;;;58.17;31.33;;;;;;;3.63;63.08;100181.09;4950462;28;20091;-83
2023/01/31 04:11:10;;;;;;;62.60;33.90;;;;;;;3.55;63.23;100164.72;4950292;28;20059;-82
2023/01/31 04:13:35;;;;;;;53.15;30.13;;;;;;;3.65;63.25;100168.56;4949952;28;20118;-84
2023/01/31 04:16:02;;;;;;;70.03;32.63;;;;;;;3.74;63.25;100179.50;4958131;28;20475;-82
2023/01/31 04:18:27;;;;;;;64.65;31.50;;;;;;;3.84;63.18;100193.09;4969643;28;20429;-82
2023/01/31 04:20:53;;;;;;;65.80;31.23;;;;;;;3.78;63.13;100190.81;4966663;28;20030;-82
2023/01/31 04:23:18;;;;;;;65.65;33.78;;;;;;;3.50;63.36;100174.81;4963119;28;20043;-82
2023/01/31 04:25:44;;;;;;;68.32;33.40;;;;;;;3.60;63.50;100191.91;4960860;28;20051;-82
2023/01/31 04:28:10;;;;;;;64.25;35.05;;;;;;;3.53;63.87;100191.44;4946992;28;20170;-80
2023/01/31 04:30:35;;;;;;;66.47;36.10;;;;;;;3.51;64.08;100192.47;4957849;28;20687;-83
2023/01/31 04:33:02;;;;;;;70.43;37.90;;;;;;;3.44;64.93;100188.47;4956172;28;20035;-82
2023/01/31 04:35:27;;;;;;;78.82;38.03;;;;;;;3.38;64.68;100183.50;4942497;29;20039;-89
2023/01/31 04:37:53;;;;;;;77.82;37.72;;;;;;;3.54;64.75;100185.19;4959457;29;20181;-89
2023/01/31 04:40:18;;;;;;;79.57;37.25;;;;;;;3.52;64.67;100188.84;4950985;29;20601;-85
2023/01/31 04:42:44;;;;;;;75.90;37.75;;;;;;;3.37;64.62;100168.50;5031106;28;20072;-88
2023/01/31 04:45:10;;;;;;;78.10;38.80;;;;;;;3.54;64.21;100192.28;5032890;28;20029;-87
2023/01/31 04:47:35;;;;;;;63.63;35.40;;;;;;;3.54;63.85;100203.78;5030756;28;20033;-79
2023/01/31 04:50:00;;;;;;;72.10;36.95;;;;;;;3.59;64.12;100216.78;5029949;28;20040;-78
2023/01/31 04:52:26;;;;;;;66.18;33.97;;;;;;;3.52;64.41;100215.44;5029939;28;20089;-79
2023/01/31 04:54:51;;;;;;;73.88;37.70;;;;;;;3.40;65.17;100226.78;5031632;28;20018;-79
2023/01/31 04:57:17;;;;;;;64.90;33.67;;;;;;;3.09;64.99;100222.38;5036132;28;20037;-81
2023/01/31 04:59:42;;;;;;;71.60;36.58;;;;;;;3.03;66.13;100223.59;5032379;28;20025;-81
2023/01/31 05:02:08;;;;;;;83.15;40.33;;;;;;;3.19;66.32;100227.09;5030150;28;20493;-82
2023/01/31 05:04:33;;;;;;;88.05;48.28;;;;;;;3.11;66.54;100231.13;5029520;28;20037;-79
2023/01/31 05:06:59;;;;;;;89.55;50.10;;;;;;;3.05;66.81;100227.03;5029143;28;20669;-78
2023/01/31 05:09:25;;;;;;;85.90;46.38;;;;;;;3.06;66.98;100218.09;5028888;28;20425;-77
2023/01/31 05:11:50;;;;;;;80.70;43.78;;;;;;;3.15;66.88;100228.19;5029289;28;20167;-77
2023/01/31 05:14:17;;;;;;;76.70;41.03;;;;;;;3.06;67.64;100233.19;5029305;28;20021;-81
2023/01/31 05:16:46;;;;;;;76.50;38.25;;;;;;;3.01;67.45;100214.88;5029790;28;20455;-77
2023/01/31 05:19:14;;;;;;;77.55;38.88;;;;;;;3.08;67.61;100226.88;5029885;28;20160;-79
2023/01/31 05:21:59;;;;;;;72.78;38.95;;;;;;;3.07;68.15;100219.81;5029820;28;20568;-77
2023/01/31 05:24:27;;;;;;;82.50;37.53;;;;;;;3.04;67.99;100225.31;5012020;28;20130;-79
2023/01/31 05:26:57;;;;;;;80.35;40.85;;;;;;;2.95;68.34;100217.00;5029902;28;20114;-77
2023/01/31 05:29:23;;;;;;;91.18;44.30;;;;;;;2.85;68.51;100232.59;5029701;28;20017;-79
2023/01/31 05:31:53;;;;;;;94.00;45.30;;;;;;;2.79;69.35;100243.56;5012364;28;20754;-79
2023/01/31 05:34:19;;;;;;;97.57;51.88;;;;;;;2.72;69.70;100239.56;5007706;28;20144;-78
2023/01/31 05:36:45;;;;;;;129.25;66.70;;;;;;;2.84;69.93;100240.66;5010992;28;20038;-77
2023/01/31 05:39:10;;;;;;;128.63;70.28;;;;;;;3.00;70.16;100249.47;5027760;28;20045;-79
2023/01/31 05:41:36;;;;;;;131.48;66.45;;;;;;;2.90;70.38;100233.22;5031341;28;20021;-79
2023/01/31 05:44:01;;;;;;;106.70;57.63;;;;;;;3.00;70.40;100230.88;5026653;28;20053;-79
2023/01/31 05:46:26;;;;;;;113.88;59.97;;;;;;;3.01;70.03;100257.38;5008091;28;20034;-78
2023/01/31 05:48:52;;;;;;;110.47;56.50;;;;;;;3.10;70.15;100253.31;5009234;28;20043;-77
2023/01/31 05:51:17;;;;;;;119.78;55.92;;;;;;;3.08;69.97;100242.81;5008312;28;20049;-77
2023/01/31 05:53:43;;;;;;;98.22;51.90;;;;;;;3.19;69.59;100256.31;5007233;28;20394;-77
2023/01/31 05:56:08;;;;;;;96.68;49.78;;;;;;;3.13;69.89;100259.31;5006754;28;20502;-77
2023/01/31 05:58:34;;;;;;;87.10;44.80;;;;;;;3.20;69.58;100258.03;5007089;28;20103;-77
2023/01/31 06:00:59;;;;;;;83.40;46.45;;;;;;;3.23;69.47;100257.88;5006818;28;20030;-78
2023/01/31 06:03:25;;;;;;;95.90;43.28;;;;;;;3.30;69.61;100253.91;5006777;28;20030;-78
2023/01/31 06:05:50;;;;;;;96.32;42.45;;;;;;;3.35;69.47;100266.94;5006295;28;20236;-78
2023/01/31 06:08:16;;;;;;;72.80;38.58;;;;;;;3.44;68.62;100270.84;5006564;28;20096;-77
2023/01/31 06:10:42;;;;;;;81.88;41.30;;;;;;;3.38;68.84;100269.41;5008157;28;20034;-77
2023/01/31 06:13:07;;;;;;;75.03;40.40;;;;;;;3.29;68.61;100268.16;5011484;28;20091;-77
2023/01/31 06:15:33;;;;;;;78.88;42.40;;;;;;;3.17;69.18;100268.84;5029562;28;20404;-77
2023/01/31 06:17:58;;;;;;;90.22;41.17;;;;;;;3.22;69.15;100271.22;5029146;28;20479;-77
2023/01/31 06:20:24;;;;;;;79.00;39.80;;;;;;;3.19;69.42;100269.59;5032064;28;20051;-77
2023/01/31 06:22:50;;;;;;;78.68;39.75;;;;;;;3.13;69.76;100267.28;5032653;28;20029;-78
2023/01/31 06:25:16;;;;;;;77.57;38.90;;;;;;;3.09;69.87;100273.72;5032089;28;20029;-76
2023/01/31 06:27:41;;;;;;;73.70;39.65;;;;;;;3.19;69.97;100272.25;5014101;28;20041;-81
2023/01/31 06:30:08;;;;;;;79.93;42.83;;;;;;;3.18;69.63;100286.47;5032379;28;20022;-78
2023/01/31 06:32:33;;;;;;;99.80;45.20;;;;;;;3.07;70.20;100278.28;5027387;28;20033;-78
2023/01/31 06:34:58;;;;;;;82.47;44.22;;;;;;;3.08;70.22;100274.69;5031842;28;20029;-79
2023/01/31 06:37:24;;;;;;;84.78;44.20;;;;;;;3.07;70.45;100283.59;5032150;28;20021;-77
2023/01/31 06:39:49;;;;;;;89.68;43.80;;;;;;;2.98;70.45;100278.78;5032063;28;20018;-76
2023/01/31 06:42:15;;;;;;;87.85;47.35;;;;;;;2.80;71.11;100274.50;5031967;28;20033;-77
2023/01/31 06:44:40;;;;;;;93.07;43.58;;;;;;;2.94;71.86;100290.50;5031761;28;20087;-77
2023/01/31 06:47:06;;;;;;;81.15;43.60;;;;;;;3.01;71.75;100286.59;5013863;28;20214;-78
2023/01/31 06:49:31;;;;;;;88.45;47.90;;;;;;;3.10;71.78;100286.06;5031888;28;20132;-78
2023/01/31 06:51:57;;;;;;;94.78;46.60;;;;;;;3.06;72.11;100292.47;5032240;28;20033;-78
2023/01/31 06:54:22;;;;;;;95.53;46.10;;;;;;;2.96;72.17;100296.63;5014370;28;20021;-79
2023/01/31 06:56:48;;;;;;;86.43;47.58;;;;;;;3.05;72.71;100290.78;5031607;28;20141;-80
2023/01/31 06:59:13;;;;;;;91.30;46.28;;;;;;;3.10;72.43;100309.13;5031635;28;20028;-77
2023/01/31 07:01:39;;;;;;;91.72;43.50;;;;;;;3.08;72.11;100308.34;5031598;28;20052;-79
2023/01/31 07:04:04;;;;;;;87.80;48.35;;;;;;;3.18;72.34;100310.41;5031712;28;20083;-78
2023/01/31 07:06:29;;;;;;;92.43;44.40;;;;;;;3.28;71.93;100305.44;5032010;28;20033;-77
2023/01/31 07:08:55;;;;;;;88.97;46.33;;;;;;;2.99;72.72;100291.13;5031957;28;20026;-79
2023/01/31 07:11:20;;;;;;;92.18;49.33;;;;;;;3.07;73.11;100296.88;5031022;28;20548;-77
2023/01/31 07:13:46;;;;;;;97.25;47.08;;;;;;;3.27;72.98;100307.22;5031397;28;20025;-80
2023/01/31 07:16:13;;;;;;;94.80;47.83;;;;;;;3.24;72.70;100318.03;5031749;28;20069;-78
2023/01/31 07:18:38;;;;;;;86.20;47.42;;;;;;;3.23;73.29;100323.44;5031828;28;20052;-78
2023/01/31 07:21:05;;;;;;;98.72;47.90;;;;;;;3.37;73.15;100325.31;5031274;28;20037;-77
2023/01/31 07:23:30;;;;;;;93.45;46.47;;;;;;;3.44;73.31;100316.91;5031346;28;20029;-78
2023/01/31 07:25:56;;;;;;;88.88;47.35;;;;;;;3.42;72.96;100315.28;5031203;28;20035;-79
2023/01/31 07:28:21;;;;;;;86.65;43.33;;;;;;;3.64;72.70;100321.91;5031135;28;20098;-77
2023/01/31 07:30:47;;;;;;;85.25;44.55;;;;;;;3.77;72.14;100311.44;5030451;28;20132;-78
2023/01/31 07:33:12;;;;;;;86.47;45.45;;;;;;;3.87;72.57;100320.59;5030826;28;20021;-79
2023/01/31 07:35:40;;;;;;;85.78;42.35;;;;;;;3.77;72.28;100306.97;5031249;28;20489;-77
2023/01/31 07:38:05;;;;;;;78.40;42.58;;;;;;;3.91;72.04;100319.47;5031319;28;20034;-78
2023/01/31 07:40:31;;;;;;;84.50;40.33;;;;;;;3.86;71.46;100321.53;5031028;28;20076;-78
2023/01/31 07:42:58;;;;;;;74.72;39.42;;;;;;;4.07;71.64;100320.25;5030843;28;20080;-77
2023/01/31 07:45:23;;;;;;;73.93;40.33;;;;;;;4.09;71.39;100310.41;5030563;28;20036;-78
2023/01/31 07:47:49;;;;;;;72.05;37.47;;;;;;;4.03;71.27;100302.78;5030638;28;20021;-78
2023/01/31 07:50:15;;;;;;;71.80;37.17;;;;;;;4.09;71.43;100304.22;5030792;28;20134;-78
2023/01/31 07:52:40;;;;;;;85.75;38.05;;;;;;;4.22;71.16;100303.38;5030538;28;20040;-77
2023/01/31 07:55:06;;;;;;;91.28;40.22;;;;;;;4.43;70.85;100324.34;5030565;28;20078;-78
2023/01/31 07:57:32;;;;;;;72.72;37.67;;;;;;;4.35;70.67;100311.47;5030149;28;20428;-79
2023/01/31 07:59:57;;;;;;;80.28;40.05;;;;;;;4.52;70.29;100316.66;5030533;28;20037;-78
2023/01/31 08:05:09;;;;;;;75.90;40.30;;;;;;;4.64;70.19;100317.69;5030003;28;20055;-79
2023/01/31 08:07:34;;;;;;;82.85;43.45;;;;;;;4.84;70.21;100309.28;5030336;28;20114;-77
2023/01/31 08:10:00;;;;;;;77.47;39.70;;;;;;;4.96;69.32;100319.19;5030152;28;20348;-77
2023/01/31 08:12:25;;;;;;;68.43;37.25;;;;;;;5.00;69.42;100310.03;5030177;28;20489;-80
2023/01/31 08:14:50;;;;;;;74.53;39.33;;;;;;;5.12;68.96;100311.06;5030198;28;20576;-77
2023/01/31 08:17:16;;;;;;;77.55;38.88;;;;;;;5.22;68.62;100318.41;5030385;28;20033;-78
2023/01/31 08:19:42;;;;;;;62.03;35.63;;;;;;;5.28;67.90;100317.13;5030026;28;20126;-78
2023/01/31 08:22:07;;;;;;;67.70;37.08;;;;;;;5.32;67.96;100314.16;5030174;28;20026;-81
2023/01/31 08:24:32;;;;;;;79.38;41.65;;;;;;;5.34;67.33;100309.59;5030756;28;20029;-77
2023/01/31 08:26:59;;;;;;;69.93;35.92;;;;;;;5.35;67.32;100313.94;5029987;28;20048;-78
2023/01/31 08:29:25;;;;;;;63.33;34.80;;;;;;;5.37;66.91;100333.41;5012131;28;20091;-79
2023/01/31 08:31:51;;;;;;;54.55;31.75;;;;;;;5.45;66.83;100324.88;5030316;28;20473;-79
2023/01/31 08:34:17;;;;;;;66.00;34.88;;;;;;;5.33;66.41;100333.69;5029971;28;20067;-78
2023/01/31 08:36:43;;;;;;;65.32;35.33;;;;;;;5.46;66.79;100338.13;5029982;28;20759;-79
2023/01/31 08:39:09;;;;;;;68.15;36.50;;;;;;;5.34;66.50;100333.59;5029778;28;20018;-78
2023/01/31 08:41:37;;;;;;;70.68;35.50;;;;;;;5.40;66.64;100341.19;5029803;28;20033;-78
2023/01/31 08:44:06;;;;;;;62.40;34.22;;;;;;;5.18;66.90;100332.88;5029204;28;20029;-80
2023/01/31 08:46:34;;;;;;;69.53;36.08;;;;;;;5.31;66.92;100339.13;5012373;28;20041;-78
2023/01/31 08:49:01;;;;;;;63.92;34.10;;;;;;;5.46;66.87;100338.13;5012156;28;20093;-76
2023/01/31 08:51:26;;;;;;;67.85;34.08;;;;;;;5.60;66.66;100345.22;5031064;28;20457;-78
2023/01/31 08:53:52;;;;;;;61.90;31.45;;;;;;;5.56;66.34;100311.72;5029872;28;20097;-78
2023/01/31 08:56:20;;;;;;;57.50;30.33;;;;;;;5.78;66.01;100337.84;5029221;28;20103;-80
2023/01/31 08:58:46;;;;;;;65.93;31.70;;;;;;;5.91;65.55;100336.06;5029878;28;20117;-79
2023/01/31 09:01:14;;;;;;;51.35;28.48;;;;;;;5.83;64.27;100330.38;5030416;28;20505;-80
2023/01/31 09:03:43;;;;;;;50.28;27.20;;;;;;;5.79;64.22;100323.53;5029703;28;20405;-79
2023/01/31 09:06:16;;;;;;;57.67;28.38;;;;;;;6.06;63.65;100337.72;5029356;28;20469;-77
2023/01/31 09:08:41;;;;;;;47.67;26.60;;;;;;;6.18;62.84;100333.34;5029517;28;20051;-79
2023/01/31 09:11:07;;;;;;;49.17;26.17;;;;;;;6.14;62.25;100323.88;5029537;28;20029;-78
2023/01/31 09:13:34;;;;;;;44.72;23.33;;;;;;;6.27;61.57;100336.25;5030031;28;20029;-78
2023/01/31 09:16:02;;;;;;;53.42;25.33;;;;;;;6.16;61.14;100333.47;5029630;28;20036;-79
2023/01/31 09:18:28;;;;;;;38.50;20.73;;;;;;;6.17;61.05;100335.19;5011912;28;20172;-78
2023/01/31 09:20:53;;;;;;;44.05;23.73;;;;;;;6.18;60.81;100336.88;5029487;28;20105;-78
2023/01/31 09:23:19;;;;;;;38.30;20.20;;;;;;;6.12;60.43;100321.28;5029881;28;20013;-78
2023/01/31 09:25:52;;;;;;;46.00;23.08;;;;;;;6.26;60.26;100333.72;5029940;28;20044;-78
2023/01/31 09:28:18;;;;;;;41.70;22.65;;;;;;;6.22;60.34;100334.88;5030931;28;20056;-79
2023/01/31 09:30:43;;;;;;;40.88;20.63;;;;;;;6.26;60.79;100323.88;5029606;28;20026;-79
2023/01/31 09:33:08;;;;;;;43.30;21.98;;;;;;;6.29;60.48;100339.69;5029023;28;20026;-77
2023/01/31 09:35:34;;;;;;;43.97;22.13;;;;;;;6.42;60.82;100331.72;5029279;28;20517;-78
2023/01/31 09:37:59;;;;;;;36.25;20.90;;;;;;;6.46;60.31;100334.03;5029629;28;20022;-77
2023/01/31 09:40:30;;;;;;;39.40;20.10;;;;;;;6.43;59.65;100331.59;5029559;28;20029;-77
2023/01/31 09:43:00;;;;;;;42.00;21.08;;;;;;;6.27;59.43;100330.91;5029292;28;20049;-79
2023/01/31 09:45:30;;;;;;;40.30;21.40;;;;;;;6.14;60.15;100322.06;5012403;28;20030;-79
2023/01/31 09:47:58;;;;;;;47.53;22.25;;;;;;;6.17;60.56;100324.53;5030698;28;20477;-79
2023/01/31 09:50:35;;;;;;;41.25;21.73;;;;;;;6.17;60.67;100329.84;5035646;28;20111;-79
2023/01/31 09:53:01;;;;;;;47.45;23.15;;;;;;;6.13;61.00;100322.16;5052893;28;20056;-79
2023/01/31 09:55:52;;;;;;;38.15;21.92;;;;;;;6.11;60.73;100324.06;5055588;28;20044;-78
2023/01/31 09:58:26;;;;;;;41.08;21.98;;;;;;;5.98;60.63;100318.72;5036586;28;20101;-77
2023/01/31 10:01:01;;;;;;;36.55;21.98;;;;;;;5.97;61.35;100319.66;5033220;28;20496;-79
2023/01/31 10:03:35;;;;;;;38.20;21.27;;;;;;;5.88;61.86;100318.47;5016089;28;20033;-77
2023/01/31 10:06:24;;;;;;;40.67;22.40;;;;;;;5.92;61.90;100325.31;5034102;28;20460;-78
2023/01/31 10:09:01;;;;;;;42.35;20.67;;;;;;;6.03;61.04;100322.78;5033626;28;20089;-80
2023/01/31 10:11:33;;;;;;;39.25;21.63;;;;;;;5.98;60.95;100321.38;5032464;28;20030;-80
2023/01/31 10:14:14;;;;;;;34.55;20.48;;;;;;;5.96;61.47;100326.81;5032511;28;20076;-79
2023/01/31 10:16:54;;;;;;;39.88;22.08;;;;;;;6.00;62.11;100322.13;5032098;28;20021;-77
2023/01/31 10:19:30;;;;;;;34.60;19.95;;;;;;;6.11;61.73;100322.25;5014572;28;20108;-79
2023/01/31 10:22:04;;;;;;;38.13;21.60;;;;;;;6.16;61.20;100312.13;5014358;28;20038;-78
2023/01/31 10:25:02;;;;;;;43.85;21.30;;;;;;;6.18;61.95;100315.53;5032522;28;20025;-79
2023/01/31 10:27:43;;;;;;;40.95;21.08;;;;;;;6.26;60.45;100307.88;4951742;29;20050;-79
2023/01/31 10:30:22;;;;;;;37.28;19.42;;;;;;;6.27;60.33;100314.91;4952003;29;20123;-81
2023/01/31 10:32:54;;;;;;;37.35;21.83;;;;;;;6.35;60.68;100307.22;4951695;29;20078;-78
2023/01/31 10:35:34;;;;;;;38.83;21.63;;;;;;;6.48;60.61;100308.06;4951608;29;20095;-78
2023/01/31 10:38:16;;;;;;;41.65;21.00;;;;;;;6.61;60.53;100304.53;4951515;29;20050;-79
2023/01/31 10:40:44;;;;;;;36.60;20.27;;;;;;;6.68;58.78;100311.16;4951261;29;20513;-78
2023/01/31 10:43:21;;;;;;;42.95;22.33;;;;;;;6.70;58.61;100310.09;4951294;29;20039;-79
2023/01/31 10:45:47;;;;;;;46.05;24.02;;;;;;;6.66;58.87;100289.91;4950986;29;20135;-79
2023/01/31 10:48:25;;;;;;;43.03;22.85;;;;;;;6.72;58.65;100310.00;4951300;29;20048;-78
2023/01/31 10:50:51;;;;;;;41.03;23.05;;;;;;;6.73;58.44;100307.22;4950906;29;20039;-77
2023/01/31 10:53:16;;;;;;;45.47;24.05;;;;;;;6.65;58.13;100298.03;4951144;28;20457;-77
2023/01/31 10:56:02;;;;;;;41.20;21.60;;;;;;;6.67;57.73;100306.78;4951077;29;20043;-79
2023/01/31 10:58:28;;;;;;;38.70;22.05;;;;;;;6.55;58.01;100301.34;4951164;29;20031;-78
2023/01/31 11:00:54;;;;;;;41.50;21.42;;;;;;;6.50;58.57;100308.84;4950842;29;20050;-79
2023/01/31 11:03:20;;;;;;;39.17;22.10;;;;;;;6.43;59.29;100301.34;4975541;28;20045;-78
2023/01/31 11:05:56;;;;;;;36.10;19.50;;;;;;;6.51;58.49;100313.19;5029982;28;20037;-80
2023/01/31 11:08:41;;;;;;;35.92;19.55;;;;;;;6.42;58.53;100307.66;5031140;28;20053;-78
2023/01/31 11:11:12;;;;;;;34.45;18.48;;;;;;;6.39;58.84;100319.41;5031167;28;20026;-78
2023/01/31 11:13:39;;;;;;;33.08;17.40;;;;;;;6.35;58.10;100309.91;5031341;28;20021;-78
2023/01/31 11:16:10;;;;;;;35.25;18.52;;;;;;;6.44;58.58;100311.94;5031060;28;20064;-78
2023/01/31 11:18:48;;;;;;;36.60;17.45;;;;;;;6.40;58.55;100294.41;5031498;28;20477;-77
2023/01/31 11:21:29;;;;;;;39.95;18.30;;;;;;;6.47;58.86;100310.88;5031190;28;20036;-78
2023/01/31 11:24:03;;;;;;;33.28;18.20;;;;;;;6.45;58.13;100302.13;5030936;28;20076;-79
2023/01/31 11:26:37;;;;;;;29.77;16.38;;;;;;;6.49;58.59;100304.44;5031085;28;20057;-77
2023/01/31 11:29:46;;;;;;;29.15;15.80;;;;;;;6.53;58.12;100311.28;5031401;28;20481;-79
2023/01/31 11:32:17;;;;;;;26.65;14.55;;;;;;;6.43;58.24;100296.00;4950407;29;20122;-78
2023/01/31 11:34:58;;;;;;;29.73;17.02;;;;;;;6.49;58.80;100306.25;4950476;29;20038;-78